createdAt,value
2018-07-24T00:00:57.730Z,"    0"
2018-07-24T00:05:53.322Z,"    0"
2018-07-24T00:10:49.346Z,"    0"
2018-07-24T00:15:45.291Z,"    0"
2018-07-24T00:20:41.880Z,"    0"
2018-07-24T00:25:37.949Z,"    0"
2018-07-24T00:30:35.056Z,"    0"
2018-07-24T00:35:30.529Z,"    0"
2018-07-24T00:40:27.389Z,"    0"
2018-07-24T00:45:23.041Z,"    0"
2018-07-24T00:50:19.064Z,"    0"
2018-07-24T00:55:16.038Z,"    0"
2018-07-24T01:00:12.019Z,"    0"
2018-07-24T01:05:08.863Z,"    0"
2018-07-24T01:10:05.494Z,"    0"
2018-07-24T01:15:01.737Z,"    0"
2018-07-24T01:19:57.753Z,"    0"
2018-07-24T01:24:54.895Z,"    0"
2018-07-24T01:29:51.861Z,"    0"
2018-07-24T01:34:47.352Z,"    0"
2018-07-24T01:39:44.320Z,"    0"
2018-07-24T01:44:40.198Z,"    0"
2018-07-24T01:49:35.971Z,"    0"
2018-07-24T01:54:31.700Z,"    0"
2018-07-24T01:59:27.578Z,"    0"
2018-07-24T02:04:23.186Z,"    0"
2018-07-24T02:09:18.916Z,"    0"
2018-07-24T02:14:15.807Z,"    0"
2018-07-24T02:19:11.298Z,"    0"
2018-07-24T02:24:07.129Z,"    0"
2018-07-24T02:29:02.959Z,"    0"
2018-07-24T02:33:58.849Z,"    0"
2018-07-24T02:38:54.515Z,"    0"
2018-07-24T02:43:50.527Z,"    0"
2018-07-24T02:48:47.307Z,"    0"
2018-07-24T02:53:42.661Z,"    0"
2018-07-24T02:58:38.300Z,"    0"
2018-07-24T03:03:35.636Z,"    0"
2018-07-24T03:08:31.245Z,"    0"
2018-07-24T03:13:27.215Z,"    0"
2018-07-24T03:18:23.036Z,"    0"
2018-07-24T03:23:19.946Z,"    0"
2018-07-24T03:28:16.601Z,"    0"
2018-07-24T03:33:12.913Z,"    0"
2018-07-24T03:38:08.892Z,"    5"
2018-07-24T03:43:05.011Z,"    5"
2018-07-24T03:48:01.144Z,"   10"
2018-07-24T03:52:57.174Z,"   15"
2018-07-24T03:57:54.921Z,"   15"
2018-07-24T04:02:50.394Z,"   20"
2018-07-24T04:07:46.539Z,"   25"
2018-07-24T04:12:42.427Z,"   35"
2018-07-24T04:17:38.666Z,"   40"
2018-07-24T04:22:35.047Z,"   45"
2018-07-24T04:27:31.273Z,"   50"
2018-07-24T04:32:27.516Z,"  110"
2018-07-24T04:37:23.912Z,"  125"
2018-07-24T04:42:20.532Z,"  135"
2018-07-24T04:47:17.016Z,"  145"
2018-07-24T04:52:13.673Z,"  160"
2018-07-24T04:57:10.374Z,"  155"
2018-07-24T05:02:06.975Z,"  130"
2018-07-24T05:07:04.189Z,"  180"
2018-07-24T05:12:01.532Z,"  205"
2018-07-24T05:16:58.220Z,"  215"
2018-07-24T05:21:54.501Z,"  130"
2018-07-24T05:26:50.448Z,"  165"
2018-07-24T05:31:46.097Z,"  155"
2018-07-24T05:36:41.998Z,"  190"
2018-07-24T05:41:38.093Z,"  190"
2018-07-24T05:46:35.189Z,"  165"
2018-07-24T05:51:31.115Z,"  165"
2018-07-24T05:56:28.324Z,"  450"
2018-07-24T06:01:25.593Z,"  235"
2018-07-24T06:06:21.591Z,"  170"
2018-07-24T06:11:18.124Z,"  150"
2018-07-24T06:16:13.689Z,"  145"
2018-07-24T06:21:09.161Z,"  130"
2018-07-24T06:26:04.675Z,"  135"
2018-07-24T06:31:01.288Z,"  175"
2018-07-24T06:35:57.075Z,"  155"
2018-07-24T06:40:53.072Z,"  210"
2018-07-24T06:45:51.097Z,"  140"
2018-07-24T06:50:46.752Z,"  165"
2018-07-24T06:55:42.572Z,"  145"
2018-07-24T07:00:38.541Z,"  185"
2018-07-24T07:05:34.651Z,"  150"
2018-07-24T07:10:30.679Z,"  150"
2018-07-24T07:15:26.620Z,"  155"
2018-07-24T07:20:23.575Z,"  160"
2018-07-24T07:25:19.294Z,"  165"
2018-07-24T07:30:16.416Z,"  155"
2018-07-24T07:35:12.303Z,"  160"
2018-07-24T07:40:08.095Z,"  165"
2018-07-24T07:45:04.289Z,"  180"
2018-07-24T07:50:00.329Z,"  170"
2018-07-24T07:54:56.666Z,"  395"
2018-07-24T07:59:55.171Z," 1135"
2018-07-24T08:04:55.713Z," 1225"
2018-07-24T08:09:54.195Z," 1260"
2018-07-24T08:14:53.414Z," 1100"
2018-07-24T08:19:51.092Z," 1295"
2018-07-24T08:24:48.637Z," 1290"
2018-07-24T08:29:45.697Z," 1270"
2018-07-24T08:34:42.432Z," 1345"
2018-07-24T08:39:40.089Z," 1275"
2018-07-24T08:44:36.161Z," 1265"
2018-07-24T08:49:32.510Z," 1345"
2018-07-24T08:54:29.577Z," 1390"
2018-07-24T08:59:26.359Z," 1445"
2018-07-24T09:04:24.191Z," 1320"
2018-07-24T09:09:20.459Z," 1460"
2018-07-24T09:14:17.036Z," 1595"
2018-07-24T09:19:13.331Z," 1510"
2018-07-24T09:24:09.808Z," 1630"
2018-07-24T09:29:05.875Z," 1540"
2018-07-24T09:34:01.957Z," 1490"
2018-07-24T09:38:58.371Z," 1530"
2018-07-24T09:43:53.532Z," 1390"
2018-07-24T09:48:48.128Z," 1275"
2018-07-24T09:53:44.314Z," 1130"
2018-07-24T09:58:39.916Z," 1735"
2018-07-24T10:03:36.384Z," 1715"
2018-07-24T10:08:33.256Z," 1835"
2018-07-24T10:13:29.843Z," 1630"
2018-07-24T10:18:26.334Z," 1615"
2018-07-24T10:23:23.103Z," 1690"
2018-07-24T10:28:19.956Z," 1665"
2018-07-24T10:33:16.954Z," 1895"
2018-07-24T10:38:13.506Z," 1850"
2018-07-24T10:43:10.332Z," 1590"
2018-07-24T10:48:07.013Z," 1875"
2018-07-24T10:53:03.384Z," 1705"
2018-07-24T10:58:00.322Z," 1805"
2018-07-24T11:02:57.393Z," 1910"
2018-07-24T11:07:54.141Z," 1750"
2018-07-24T11:12:50.981Z," 1545"
2018-07-24T11:17:47.386Z," 1845"
2018-07-24T11:22:44.285Z," 1890"
2018-07-24T11:27:42.453Z," 1935"
2018-07-24T11:32:39.222Z," 1865"
2018-07-24T11:37:35.384Z," 1875"
2018-07-24T11:42:33.063Z," 1855"
2018-07-24T11:47:30.738Z," 1865"
2018-07-24T11:52:27.217Z," 1810"
2018-07-24T11:57:24.396Z," 1925"
2018-07-24T12:02:20.470Z," 1950"
2018-07-24T12:07:16.929Z," 2000"
2018-07-24T12:12:12.518Z," 1875"
2018-07-24T12:17:08.002Z," 1805"
2018-07-24T12:22:04.101Z," 1810"
2018-07-24T12:26:59.938Z," 1910"
2018-07-24T12:31:56.093Z," 1930"
2018-07-24T12:36:52.566Z," 1905"
2018-07-24T12:41:48.878Z," 1715"
2018-07-24T12:46:44.523Z," 1755"
2018-07-24T12:51:39.800Z," 1650"
2018-07-24T12:56:35.486Z," 1705"
2018-07-24T13:01:32.104Z," 1375"
2018-07-24T13:06:28.516Z," 1465"
2018-07-24T13:11:24.559Z," 1580"
2018-07-24T13:16:20.204Z," 1605"
2018-07-24T13:21:16.744Z," 1620"
2018-07-24T13:26:13.187Z," 1650"
2018-07-24T13:31:09.246Z," 1680"
2018-07-24T13:36:04.596Z," 1665"
2018-07-24T13:40:59.407Z," 1795"
2018-07-24T13:45:55.690Z," 1685"
2018-07-24T13:50:52.186Z," 1620"
2018-07-24T13:55:49.523Z," 1700"
2018-07-24T14:00:45.709Z," 1505"
2018-07-24T14:05:41.665Z," 1560"
2018-07-24T14:10:37.495Z," 1480"
2018-07-24T14:15:33.358Z," 1540"
2018-07-24T14:20:30.291Z,"  185"
2018-07-24T14:25:25.084Z,"  155"
2018-07-24T14:30:20.319Z,"  150"
2018-07-24T14:35:15.786Z,"  140"
2018-07-24T14:40:11.383Z,"  135"
2018-07-24T14:45:07.853Z,"  130"
2018-07-24T14:50:03.093Z,"  130"
2018-07-24T14:54:59.703Z,"  120"
2018-07-24T14:59:56.545Z,"  130"
2018-07-24T15:04:51.929Z,"  125"
2018-07-24T15:09:48.892Z,"  120"
2018-07-24T15:14:45.535Z,"  120"
2018-07-24T15:19:41.033Z,"  115"
2018-07-24T15:24:37.090Z,"  120"
2018-07-24T15:29:33.193Z,"  120"
2018-07-24T15:34:29.375Z,"  115"
2018-07-24T15:39:25.393Z,"  110"
2018-07-24T15:44:22.491Z,"  110"
2018-07-24T15:49:18.184Z,"  100"
2018-07-24T15:54:14.272Z,"  100"
2018-07-24T15:59:11.322Z,"  100"
2018-07-24T16:04:08.250Z,"  100"
2018-07-24T16:09:04.045Z,"   95"
2018-07-24T16:14:00.593Z,"   95"
2018-07-24T16:18:57.623Z,"   95"
2018-07-24T16:23:54.830Z,"   95"
2018-07-24T16:28:51.123Z,"   95"
2018-07-24T16:33:47.080Z,"   95"
2018-07-24T16:38:44.414Z,"   90"
2018-07-24T16:43:40.160Z,"   90"
2018-07-24T16:48:36.170Z,"   90"
2018-07-24T16:53:33.266Z,"   90"
2018-07-24T16:58:29.137Z,"   85"
2018-07-24T17:03:25.678Z,"   85"
2018-07-24T17:08:21.763Z,"   85"
2018-07-24T17:13:19.324Z,"   80"
2018-07-24T17:18:16.069Z,"   80"
2018-07-24T17:23:11.928Z,"   80"
2018-07-24T17:28:08.170Z,"   75"
2018-07-24T17:33:04.177Z,"   75"
2018-07-24T17:38:00.197Z,"   75"
2018-07-24T17:42:57.277Z,"   70"
2018-07-24T17:47:53.225Z,"   70"
2018-07-24T17:52:49.196Z,"   65"
2018-07-24T17:57:46.461Z,"   60"
2018-07-24T18:02:42.151Z,"   60"
2018-07-24T18:07:39.398Z,"   55"
2018-07-24T18:12:36.058Z,"   55"
2018-07-24T18:17:31.848Z,"   50"
2018-07-24T18:22:29.160Z,"   50"
2018-07-24T18:27:24.848Z,"   45"
2018-07-24T18:32:20.931Z,"   45"
2018-07-24T18:37:16.895Z,"   40"
2018-07-24T18:42:12.958Z,"   35"
2018-07-24T18:47:08.918Z,"   30"
2018-07-24T18:52:05.114Z,"   30"
2018-07-24T18:57:02.413Z,"   25"
2018-07-24T19:01:59.220Z,"   20"
2018-07-24T19:06:54.847Z,"   15"
2018-07-24T19:11:50.978Z,"   10"
2018-07-24T19:16:46.893Z,"   10"
2018-07-24T19:21:42.799Z,"    5"
2018-07-24T19:26:38.923Z,"    5"
2018-07-24T19:31:34.909Z,"    0"
2018-07-24T19:36:30.741Z,"    0"
2018-07-24T19:41:27.816Z,"    0"
2018-07-24T19:46:24.651Z,"    0"
2018-07-24T19:51:21.275Z,"    0"
2018-07-24T19:56:17.041Z,"    0"
2018-07-24T20:01:14.583Z,"    0"
2018-07-24T20:06:11.699Z,"    0"
2018-07-24T20:11:08.452Z,"    0"
2018-07-24T20:16:04.029Z,"    0"
2018-07-24T20:21:00.142Z,"    0"
2018-07-24T20:25:56.459Z,"    0"
2018-07-24T20:30:53.325Z,"    0"
2018-07-24T20:35:49.122Z,"    0"
2018-07-24T20:40:44.959Z,"    0"
2018-07-24T20:45:41.758Z,"    0"
2018-07-24T20:50:37.387Z,"    0"
2018-07-24T20:55:33.793Z,"    0"
2018-07-24T21:00:29.458Z,"    0"
2018-07-24T21:05:25.472Z,"    0"
2018-07-24T21:10:21.301Z,"    0"
2018-07-24T21:15:17.306Z,"    0"
2018-07-24T21:20:13.099Z,"    0"
2018-07-24T21:25:10.119Z,"    0"
2018-07-24T21:30:05.640Z,"    0"
2018-07-24T21:35:01.735Z,"    0"
2018-07-24T21:39:58.675Z,"    0"
2018-07-24T21:44:54.482Z,"    0"
2018-07-24T21:49:50.956Z,"    0"
2018-07-24T21:54:47.131Z,"    0"
2018-07-24T21:59:44.015Z,"    0"
2018-07-24T22:04:40.762Z,"    0"
2018-07-24T22:09:36.702Z,"    0"
2018-07-24T22:14:32.594Z,"    0"
2018-07-24T22:19:28.694Z,"    0"
2018-07-24T22:24:24.515Z,"    0"
2018-07-24T22:29:20.628Z,"    0"
2018-07-24T22:34:16.818Z,"    0"
2018-07-24T22:39:12.702Z,"    0"
2018-07-24T22:44:09.185Z,"    0"
2018-07-24T22:49:05.111Z,"    0"
2018-07-24T22:54:01.049Z,"    0"
2018-07-24T22:58:57.136Z,"    0"
2018-07-24T23:03:52.970Z,"    0"
2018-07-24T23:08:48.905Z,"    0"
2018-07-24T23:13:44.946Z,"    0"
2018-07-24T23:18:41.070Z,"    0"
2018-07-24T23:23:38.076Z,"    0"
2018-07-24T23:28:33.712Z,"    0"
2018-07-24T23:33:29.872Z,"    0"
2018-07-24T23:38:26.017Z,"    0"
2018-07-24T23:43:21.883Z,"    0"
2018-07-24T23:48:19.129Z,"    0"
2018-07-24T23:53:14.784Z,"    0"
2018-07-24T23:58:10.575Z,"    0"
